sensor_id;sensor_type;location;lat;lon;timestamp;P1;durP1;ratioP1;P2;durP2;ratioP2
47365;SDS011;33105;47.964;7.982;2022-12-22T00:02:02;3.22;;;1.05;;
47365;SDS011;33105;47.964;7.982;2022-12-22T00:05:27;6.65;;;1.05;;
47365;SDS011;33105;47.964;7.982;2022-12-22T00:08:55;2.80;;;0.75;;
47365;SDS011;33105;47.964;7.982;2022-12-22T00:12:19;2.00;;;0.65;;
47365;SDS011;33105;47.964;7.982;2022-12-22T00:15:39;2.53;;;0.80;;
47365;SDS011;33105;47.964;7.982;2022-12-22T00:19:02;2.33;;;0.50;;
47365;SDS011;33105;47.964;7.982;2022-12-22T00:22:24;2.70;;;0.65;;
47365;SDS011;33105;47.964;7.982;2022-12-22T00:25:48;3.00;;;0.50;;
47365;SDS011;33105;47.964;7.982;2022-12-22T00:29:08;1.40;;;0.55;;
47365;SDS011;33105;47.964;7.982;2022-12-22T00:32:35;3.08;;;0.50;;
47365;SDS011;33105;47.964;7.982;2022-12-22T00:35:56;3.65;;;0.70;;
47365;SDS011;33105;47.964;7.982;2022-12-22T00:39:16;4.03;;;0.60;;
47365;SDS011;33105;47.964;7.982;2022-12-22T00:42:39;3.03;;;0.68;;
47365;SDS011;33105;47.964;7.982;2022-12-22T00:49:33;2.75;;;0.70;;
47365;SDS011;33105;47.964;7.982;2022-12-22T00:52:55;4.50;;;0.30;;
47365;SDS011;33105;47.964;7.982;2022-12-22T00:56:15;1.63;;;0.50;;
47365;SDS011;33105;47.964;7.982;2022-12-22T00:59:37;1.80;;;0.40;;
47365;SDS011;33105;47.964;7.982;2022-12-22T01:03:02;1.40;;;0.55;;
47365;SDS011;33105;47.964;7.982;2022-12-22T01:06:22;2.30;;;0.57;;
47365;SDS011;33105;47.964;7.982;2022-12-22T01:09:45;2.92;;;0.45;;
47365;SDS011;33105;47.964;7.982;2022-12-22T01:13:11;0.85;;;0.38;;
47365;SDS011;33105;47.964;7.982;2022-12-22T01:16:33;1.25;;;0.40;;
47365;SDS011;33105;47.964;7.982;2022-12-22T01:19:54;2.75;;;0.80;;
47365;SDS011;33105;47.964;7.982;2022-12-22T01:23:14;1.98;;;0.60;;
47365;SDS011;33105;47.964;7.982;2022-12-22T01:26:34;0.50;;;0.30;;
47365;SDS011;33105;47.964;7.982;2022-12-22T01:33:14;0.90;;;0.43;;
47365;SDS011;33105;47.964;7.982;2022-12-22T01:36:36;3.50;;;0.60;;
47365;SDS011;33105;47.964;7.982;2022-12-22T01:39:55;1.85;;;0.60;;
47365;SDS011;33105;47.964;7.982;2022-12-22T01:43:18;2.05;;;0.60;;
47365;SDS011;33105;47.964;7.982;2022-12-22T01:46:42;1.27;;;0.55;;
47365;SDS011;33105;47.964;7.982;2022-12-22T01:50:09;3.13;;;0.65;;
47365;SDS011;33105;47.964;7.982;2022-12-22T01:53:30;3.83;;;0.70;;
47365;SDS011;33105;47.964;7.982;2022-12-22T01:56:52;4.45;;;0.60;;
47365;SDS011;33105;47.964;7.982;2022-12-22T02:00:15;4.38;;;0.65;;
47365;SDS011;33105;47.964;7.982;2022-12-22T02:03:35;3.10;;;0.88;;
47365;SDS011;33105;47.964;7.982;2022-12-22T02:06:56;2.53;;;1.00;;
47365;SDS011;33105;47.964;7.982;2022-12-22T02:14:12;9.25;;;0.88;;
47365;SDS011;33105;47.964;7.982;2022-12-22T02:17:55;4.53;;;0.80;;
47365;SDS011;33105;47.964;7.982;2022-12-22T02:21:25;4.03;;;1.33;;
47365;SDS011;33105;47.964;7.982;2022-12-22T02:25:02;3.50;;;0.77;;
47365;SDS011;33105;47.964;7.982;2022-12-22T02:28:30;5.85;;;0.90;;
47365;SDS011;33105;47.964;7.982;2022-12-22T02:31:51;6.00;;;0.85;;
47365;SDS011;33105;47.964;7.982;2022-12-22T02:35:24;3.35;;;0.80;;
47365;SDS011;33105;47.964;7.982;2022-12-22T02:49:39;4.63;;;1.20;;
47365;SDS011;33105;47.964;7.982;2022-12-22T02:53:10;8.32;;;1.38;;
47365;SDS011;33105;47.964;7.982;2022-12-22T02:56:33;9.27;;;1.90;;
47365;SDS011;33105;47.964;7.982;2022-12-22T02:59:58;17.05;;;2.28;;
47365;SDS011;33105;47.964;7.982;2022-12-22T03:03:17;11.45;;;1.85;;
47365;SDS011;33105;47.964;7.982;2022-12-22T03:06:40;7.22;;;1.85;;
47365;SDS011;33105;47.964;7.982;2022-12-22T03:10:10;11.23;;;2.40;;
47365;SDS011;33105;47.964;7.982;2022-12-22T03:13:32;10.23;;;1.58;;
47365;SDS011;33105;47.964;7.982;2022-12-22T03:16:56;7.82;;;1.70;;
47365;SDS011;33105;47.964;7.982;2022-12-22T03:20:16;7.45;;;1.55;;
47365;SDS011;33105;47.964;7.982;2022-12-22T03:23:36;7.88;;;1.70;;
47365;SDS011;33105;47.964;7.982;2022-12-22T03:26:56;10.27;;;1.88;;
47365;SDS011;33105;47.964;7.982;2022-12-22T03:29:59;9.98;;;2.03;;
47365;SDS011;33105;47.964;7.982;2022-12-22T03:33:02;9.63;;;1.65;;
47365;SDS011;33105;47.964;7.982;2022-12-22T03:36:06;7.88;;;1.63;;
47365;SDS011;33105;47.964;7.982;2022-12-22T03:39:11;13.45;;;2.13;;
47365;SDS011;33105;47.964;7.982;2022-12-22T03:42:16;10.85;;;1.88;;
47365;SDS011;33105;47.964;7.982;2022-12-22T03:45:36;11.35;;;2.20;;
47365;SDS011;33105;47.964;7.982;2022-12-22T03:48:56;9.98;;;2.25;;
47365;SDS011;33105;47.964;7.982;2022-12-22T03:52:20;9.80;;;2.05;;
47365;SDS011;33105;47.964;7.982;2022-12-22T03:55:21;14.00;;;1.95;;
47365;SDS011;33105;47.964;7.982;2022-12-22T03:58:23;13.48;;;2.60;;
47365;SDS011;33105;47.964;7.982;2022-12-22T04:01:27;8.10;;;1.83;;
47365;SDS011;33105;47.964;7.982;2022-12-22T04:04:29;17.83;;;2.50;;
47365;SDS011;33105;47.964;7.982;2022-12-22T04:07:34;11.85;;;2.45;;
47365;SDS011;33105;47.964;7.982;2022-12-22T04:10:48;10.25;;;1.55;;
47365;SDS011;33105;47.964;7.982;2022-12-22T04:17:17;13.05;;;1.77;;
47365;SDS011;33105;47.964;7.982;2022-12-22T04:20:22;11.80;;;1.85;;
47365;SDS011;33105;47.964;7.982;2022-12-22T04:23:29;20.95;;;2.15;;
47365;SDS011;33105;47.964;7.982;2022-12-22T04:26:34;14.50;;;1.88;;
47365;SDS011;33105;47.964;7.982;2022-12-22T04:29:42;13.05;;;2.30;;
47365;SDS011;33105;47.964;7.982;2022-12-22T04:32:45;11.02;;;1.75;;
47365;SDS011;33105;47.964;7.982;2022-12-22T04:35:55;9.68;;;1.95;;
47365;SDS011;33105;47.964;7.982;2022-12-22T04:38:59;11.75;;;2.45;;
47365;SDS011;33105;47.964;7.982;2022-12-22T04:42:00;10.35;;;1.83;;
47365;SDS011;33105;47.964;7.982;2022-12-22T04:45:03;12.80;;;1.92;;
47365;SDS011;33105;47.964;7.982;2022-12-22T04:48:07;15.13;;;2.22;;
47365;SDS011;33105;47.964;7.982;2022-12-22T04:51:09;14.85;;;2.38;;
47365;SDS011;33105;47.964;7.982;2022-12-22T04:54:10;13.35;;;2.50;;
47365;SDS011;33105;47.964;7.982;2022-12-22T04:57:16;13.95;;;2.92;;
47365;SDS011;33105;47.964;7.982;2022-12-22T05:00:18;10.13;;;2.10;;
47365;SDS011;33105;47.964;7.982;2022-12-22T05:03:26;13.32;;;2.42;;
47365;SDS011;33105;47.964;7.982;2022-12-22T05:06:27;15.75;;;2.25;;
47365;SDS011;33105;47.964;7.982;2022-12-22T05:09:28;16.27;;;2.50;;
47365;SDS011;33105;47.964;7.982;2022-12-22T05:12:30;7.05;;;1.80;;
47365;SDS011;33105;47.964;7.982;2022-12-22T05:15:53;6.75;;;1.45;;
47365;SDS011;33105;47.964;7.982;2022-12-22T05:18:54;11.18;;;2.22;;
47365;SDS011;33105;47.964;7.982;2022-12-22T05:21:56;11.45;;;1.77;;
47365;SDS011;33105;47.964;7.982;2022-12-22T05:24:58;8.68;;;1.58;;
47365;SDS011;33105;47.964;7.982;2022-12-22T05:27:59;8.65;;;1.70;;
47365;SDS011;33105;47.964;7.982;2022-12-22T05:31:04;10.70;;;2.42;;
47365;SDS011;33105;47.964;7.982;2022-12-22T05:34:07;6.70;;;1.35;;
47365;SDS011;33105;47.964;7.982;2022-12-22T05:37:09;11.48;;;2.15;;
47365;SDS011;33105;47.964;7.982;2022-12-22T05:40:12;18.23;;;2.65;;
47365;SDS011;33105;47.964;7.982;2022-12-22T05:43:14;16.77;;;2.53;;
47365;SDS011;33105;47.964;7.982;2022-12-22T05:46:53;10.73;;;1.85;;
47365;SDS011;33105;47.964;7.982;2022-12-22T05:49:59;9.82;;;1.83;;
47365;SDS011;33105;47.964;7.982;2022-12-22T05:53:02;12.10;;;2.40;;
47365;SDS011;33105;47.964;7.982;2022-12-22T05:56:25;9.30;;;2.10;;
47365;SDS011;33105;47.964;7.982;2022-12-22T05:59:27;9.65;;;2.03;;
47365;SDS011;33105;47.964;7.982;2022-12-22T06:02:29;16.60;;;2.78;;
47365;SDS011;33105;47.964;7.982;2022-12-22T06:05:39;13.35;;;2.42;;
47365;SDS011;33105;47.964;7.982;2022-12-22T06:08:52;16.23;;;2.50;;
47365;SDS011;33105;47.964;7.982;2022-12-22T06:11:55;19.35;;;3.10;;
47365;SDS011;33105;47.964;7.982;2022-12-22T06:15:01;20.15;;;2.90;;
47365;SDS011;33105;47.964;7.982;2022-12-22T06:18:06;13.05;;;2.25;;
47365;SDS011;33105;47.964;7.982;2022-12-22T06:21:13;17.48;;;2.85;;
47365;SDS011;33105;47.964;7.982;2022-12-22T06:24:15;22.08;;;3.08;;
47365;SDS011;33105;47.964;7.982;2022-12-22T06:27:17;21.60;;;3.08;;
47365;SDS011;33105;47.964;7.982;2022-12-22T06:30:29;14.00;;;2.70;;
47365;SDS011;33105;47.964;7.982;2022-12-22T06:33:37;18.48;;;2.60;;
47365;SDS011;33105;47.964;7.982;2022-12-22T06:36:46;14.48;;;2.85;;
47365;SDS011;33105;47.964;7.982;2022-12-22T06:39:50;14.90;;;2.80;;
47365;SDS011;33105;47.964;7.982;2022-12-22T06:42:55;22.08;;;2.80;;
47365;SDS011;33105;47.964;7.982;2022-12-22T06:46:14;15.75;;;2.47;;
47365;SDS011;33105;47.964;7.982;2022-12-22T06:49:28;16.73;;;2.78;;
47365;SDS011;33105;47.964;7.982;2022-12-22T06:56:10;18.15;;;3.72;;
47365;SDS011;33105;47.964;7.982;2022-12-22T06:59:18;16.45;;;2.53;;
47365;SDS011;33105;47.964;7.982;2022-12-22T07:02:23;16.15;;;3.35;;
47365;SDS011;33105;47.964;7.982;2022-12-22T07:05:42;15.68;;;2.67;;
47365;SDS011;33105;47.964;7.982;2022-12-22T07:08:51;17.48;;;2.80;;
47365;SDS011;33105;47.964;7.982;2022-12-22T07:11:58;9.65;;;1.70;;
47365;SDS011;33105;47.964;7.982;2022-12-22T07:15:11;12.40;;;2.28;;
47365;SDS011;33105;47.964;7.982;2022-12-22T07:18:22;9.23;;;2.00;;
47365;SDS011;33105;47.964;7.982;2022-12-22T07:21:28;12.50;;;2.10;;
47365;SDS011;33105;47.964;7.982;2022-12-22T07:24:32;13.57;;;2.00;;
47365;SDS011;33105;47.964;7.982;2022-12-22T07:27:36;14.18;;;2.03;;
47365;SDS011;33105;47.964;7.982;2022-12-22T07:30:40;13.20;;;2.42;;
47365;SDS011;33105;47.964;7.982;2022-12-22T07:33:50;17.02;;;2.70;;
47365;SDS011;33105;47.964;7.982;2022-12-22T07:37:08;17.55;;;3.35;;
47365;SDS011;33105;47.964;7.982;2022-12-22T07:40:44;18.27;;;2.80;;
47365;SDS011;33105;47.964;7.982;2022-12-22T07:43:52;20.02;;;3.45;;
47365;SDS011;33105;47.964;7.982;2022-12-22T07:46:55;21.05;;;3.00;;
47365;SDS011;33105;47.964;7.982;2022-12-22T07:49:56;18.00;;;3.17;;
47365;SDS011;33105;47.964;7.982;2022-12-22T07:53:20;19.08;;;3.63;;
47365;SDS011;33105;47.964;7.982;2022-12-22T07:56:27;14.75;;;3.50;;
47365;SDS011;33105;47.964;7.982;2022-12-22T07:59:31;15.50;;;2.40;;
47365;SDS011;33105;47.964;7.982;2022-12-22T08:02:46;12.27;;;2.30;;
47365;SDS011;33105;47.964;7.982;2022-12-22T08:05:53;21.42;;;2.67;;
47365;SDS011;33105;47.964;7.982;2022-12-22T08:09:01;16.50;;;2.63;;
47365;SDS011;33105;47.964;7.982;2022-12-22T08:12:06;13.82;;;2.15;;
47365;SDS011;33105;47.964;7.982;2022-12-22T08:15:07;12.02;;;2.03;;
47365;SDS011;33105;47.964;7.982;2022-12-22T08:18:11;14.10;;;1.98;;
47365;SDS011;33105;47.964;7.982;2022-12-22T08:21:19;14.75;;;2.40;;
47365;SDS011;33105;47.964;7.982;2022-12-22T08:24:26;11.13;;;2.10;;
47365;SDS011;33105;47.964;7.982;2022-12-22T08:27:49;14.23;;;2.55;;
47365;SDS011;33105;47.964;7.982;2022-12-22T08:30:56;12.55;;;2.50;;
47365;SDS011;33105;47.964;7.982;2022-12-22T08:34:06;14.98;;;2.75;;
47365;SDS011;33105;47.964;7.982;2022-12-22T08:37:18;8.23;;;2.20;;
47365;SDS011;33105;47.964;7.982;2022-12-22T08:40:29;13.63;;;2.60;;
47365;SDS011;33105;47.964;7.982;2022-12-22T08:43:39;12.68;;;2.53;;
47365;SDS011;33105;47.964;7.982;2022-12-22T08:46:45;15.25;;;2.55;;
47365;SDS011;33105;47.964;7.982;2022-12-22T08:50:02;17.33;;;2.70;;
47365;SDS011;33105;47.964;7.982;2022-12-22T08:53:08;12.63;;;2.60;;
47365;SDS011;33105;47.964;7.982;2022-12-22T08:56:12;16.70;;;2.85;;
47365;SDS011;33105;47.964;7.982;2022-12-22T08:59:20;13.88;;;3.08;;
47365;SDS011;33105;47.964;7.982;2022-12-22T09:02:22;19.58;;;3.55;;
47365;SDS011;33105;47.964;7.982;2022-12-22T09:05:23;18.08;;;2.80;;
47365;SDS011;33105;47.964;7.982;2022-12-22T09:08:24;12.98;;;2.13;;
47365;SDS011;33105;47.964;7.982;2022-12-22T09:11:26;11.90;;;2.72;;
47365;SDS011;33105;47.964;7.982;2022-12-22T09:14:28;14.10;;;2.40;;
47365;SDS011;33105;47.964;7.982;2022-12-22T09:17:30;14.30;;;2.72;;
47365;SDS011;33105;47.964;7.982;2022-12-22T09:20:31;17.38;;;3.15;;
47365;SDS011;33105;47.964;7.982;2022-12-22T09:23:33;18.30;;;2.72;;
47365;SDS011;33105;47.964;7.982;2022-12-22T09:26:34;15.32;;;3.10;;
47365;SDS011;33105;47.964;7.982;2022-12-22T09:29:37;18.17;;;2.80;;
47365;SDS011;33105;47.964;7.982;2022-12-22T09:32:41;14.88;;;2.65;;
47365;SDS011;33105;47.964;7.982;2022-12-22T09:35:42;21.75;;;3.38;;
47365;SDS011;33105;47.964;7.982;2022-12-22T09:38:44;21.77;;;2.97;;
47365;SDS011;33105;47.964;7.982;2022-12-22T09:41:47;18.33;;;2.63;;
47365;SDS011;33105;47.964;7.982;2022-12-22T09:44:51;18.45;;;3.40;;
47365;SDS011;33105;47.964;7.982;2022-12-22T09:47:52;23.30;;;2.83;;
47365;SDS011;33105;47.964;7.982;2022-12-22T09:50:54;19.27;;;3.67;;
47365;SDS011;33105;47.964;7.982;2022-12-22T09:53:58;14.75;;;2.78;;
47365;SDS011;33105;47.964;7.982;2022-12-22T09:57:01;23.40;;;3.45;;
47365;SDS011;33105;47.964;7.982;2022-12-22T10:00:12;20.25;;;2.90;;
47365;SDS011;33105;47.964;7.982;2022-12-22T10:13:28;22.90;;;3.10;;
47365;SDS011;33105;47.964;7.982;2022-12-22T10:16:32;19.50;;;3.38;;
47365;SDS011;33105;47.964;7.982;2022-12-22T10:19:33;21.13;;;3.90;;
47365;SDS011;33105;47.964;7.982;2022-12-22T10:22:38;15.85;;;2.92;;
47365;SDS011;33105;47.964;7.982;2022-12-22T10:29:19;23.80;;;3.10;;
47365;SDS011;33105;47.964;7.982;2022-12-22T10:32:19;17.10;;;3.47;;
47365;SDS011;33105;47.964;7.982;2022-12-22T10:35:22;20.50;;;3.22;;
47365;SDS011;33105;47.964;7.982;2022-12-22T10:38:37;18.70;;;3.28;;
47365;SDS011;33105;47.964;7.982;2022-12-22T10:41:41;20.48;;;3.30;;
47365;SDS011;33105;47.964;7.982;2022-12-22T10:44:58;24.10;;;3.35;;
47365;SDS011;33105;47.964;7.982;2022-12-22T10:48:35;24.83;;;3.60;;
47365;SDS011;33105;47.964;7.982;2022-12-22T10:51:41;24.52;;;4.10;;
47365;SDS011;33105;47.964;7.982;2022-12-22T10:58:45;20.98;;;3.30;;
47365;SDS011;33105;47.964;7.982;2022-12-22T11:01:49;16.90;;;3.10;;
47365;SDS011;33105;47.964;7.982;2022-12-22T11:04:51;12.35;;;2.90;;
47365;SDS011;33105;47.964;7.982;2022-12-22T11:07:54;15.38;;;2.67;;
47365;SDS011;33105;47.964;7.982;2022-12-22T11:11:04;14.90;;;2.58;;
47365;SDS011;33105;47.964;7.982;2022-12-22T11:14:26;18.42;;;3.00;;
47365;SDS011;33105;47.964;7.982;2022-12-22T11:18:15;17.80;;;3.50;;
47365;SDS011;33105;47.964;7.982;2022-12-22T11:21:39;23.67;;;3.50;;
47365;SDS011;33105;47.964;7.982;2022-12-22T11:35:12;30.15;;;4.82;;
47365;SDS011;33105;47.964;7.982;2022-12-22T11:38:38;21.33;;;4.00;;
47365;SDS011;33105;47.964;7.982;2022-12-22T11:45:46;23.33;;;4.13;;
47365;SDS011;33105;47.964;7.982;2022-12-22T11:56:03;24.73;;;3.60;;
47365;SDS011;33105;47.964;7.982;2022-12-22T12:09:25;29.02;;;4.13;;
47365;SDS011;33105;47.964;7.982;2022-12-22T12:12:44;29.67;;;3.92;;
47365;SDS011;33105;47.964;7.982;2022-12-22T12:22:35;24.98;;;4.28;;
47365;SDS011;33105;47.964;7.982;2022-12-22T12:25:47;21.83;;;3.78;;
47365;SDS011;33105;47.964;7.982;2022-12-22T12:42:29;25.63;;;4.10;;
47365;SDS011;33105;47.964;7.982;2022-12-22T12:45:38;21.55;;;3.97;;
47365;SDS011;33105;47.964;7.982;2022-12-22T12:48:41;21.40;;;4.88;;
47365;SDS011;33105;47.964;7.982;2022-12-22T12:51:49;28.38;;;5.50;;
47365;SDS011;33105;47.964;7.982;2022-12-22T12:54:50;28.77;;;4.40;;
47365;SDS011;33105;47.964;7.982;2022-12-22T13:11:53;26.98;;;4.03;;
47365;SDS011;33105;47.964;7.982;2022-12-22T13:14:59;25.50;;;4.47;;
47365;SDS011;33105;47.964;7.982;2022-12-22T13:18:08;25.60;;;4.63;;
47365;SDS011;33105;47.964;7.982;2022-12-22T13:21:36;20.48;;;4.10;;
47365;SDS011;33105;47.964;7.982;2022-12-22T13:24:41;27.92;;;4.05;;
47365;SDS011;33105;47.964;7.982;2022-12-22T13:27:44;23.98;;;4.45;;
47365;SDS011;33105;47.964;7.982;2022-12-22T13:37:40;23.23;;;4.32;;
47365;SDS011;33105;47.964;7.982;2022-12-22T13:40:45;23.33;;;4.03;;
47365;SDS011;33105;47.964;7.982;2022-12-22T13:43:52;19.85;;;3.47;;
47365;SDS011;33105;47.964;7.982;2022-12-22T13:47:00;19.35;;;3.50;;
47365;SDS011;33105;47.964;7.982;2022-12-22T13:50:14;17.50;;;3.00;;
47365;SDS011;33105;47.964;7.982;2022-12-22T13:56:45;18.50;;;3.20;;
47365;SDS011;33105;47.964;7.982;2022-12-22T13:59:50;17.27;;;3.45;;
47365;SDS011;33105;47.964;7.982;2022-12-22T14:02:52;12.52;;;1.98;;
47365;SDS011;33105;47.964;7.982;2022-12-22T14:05:54;16.13;;;2.60;;
47365;SDS011;33105;47.964;7.982;2022-12-22T14:12:50;19.90;;;3.47;;
47365;SDS011;33105;47.964;7.982;2022-12-22T14:15:59;23.90;;;3.83;;
47365;SDS011;33105;47.964;7.982;2022-12-22T14:19:02;22.42;;;3.53;;
47365;SDS011;33105;47.964;7.982;2022-12-22T14:25:18;24.35;;;3.40;;
47365;SDS011;33105;47.964;7.982;2022-12-22T14:28:25;24.60;;;4.20;;
47365;SDS011;33105;47.964;7.982;2022-12-22T14:31:31;26.05;;;4.43;;
47365;SDS011;33105;47.964;7.982;2022-12-22T14:34:33;32.20;;;4.35;;
47365;SDS011;33105;47.964;7.982;2022-12-22T14:37:35;34.42;;;4.75;;
47365;SDS011;33105;47.964;7.982;2022-12-22T14:40:38;31.20;;;4.72;;
47365;SDS011;33105;47.964;7.982;2022-12-22T14:43:44;32.42;;;4.90;;
47365;SDS011;33105;47.964;7.982;2022-12-22T14:50:17;28.23;;;4.07;;
47365;SDS011;33105;47.964;7.982;2022-12-22T14:53:21;31.15;;;4.28;;
47365;SDS011;33105;47.964;7.982;2022-12-22T14:56:27;28.38;;;3.60;;
47365;SDS011;33105;47.964;7.982;2022-12-22T14:59:28;21.75;;;3.78;;
47365;SDS011;33105;47.964;7.982;2022-12-22T15:02:34;31.13;;;4.15;;
47365;SDS011;33105;47.964;7.982;2022-12-22T15:05:38;27.67;;;4.25;;
47365;SDS011;33105;47.964;7.982;2022-12-22T15:08:42;27.73;;;4.13;;
47365;SDS011;33105;47.964;7.982;2022-12-22T15:11:45;32.80;;;4.82;;
47365;SDS011;33105;47.964;7.982;2022-12-22T15:14:59;19.00;;;3.88;;
47365;SDS011;33105;47.964;7.982;2022-12-22T15:18:00;24.52;;;3.63;;
47365;SDS011;33105;47.964;7.982;2022-12-22T15:21:02;24.58;;;3.88;;
47365;SDS011;33105;47.964;7.982;2022-12-22T15:24:08;27.40;;;4.03;;
47365;SDS011;33105;47.964;7.982;2022-12-22T15:27:12;28.73;;;4.45;;
47365;SDS011;33105;47.964;7.982;2022-12-22T15:30:16;24.58;;;4.03;;
47365;SDS011;33105;47.964;7.982;2022-12-22T15:33:19;23.67;;;3.45;;
47365;SDS011;33105;47.964;7.982;2022-12-22T15:36:22;22.98;;;4.05;;
47365;SDS011;33105;47.964;7.982;2022-12-22T15:39:24;25.23;;;3.05;;
47365;SDS011;33105;47.964;7.982;2022-12-22T15:42:25;20.52;;;3.55;;
47365;SDS011;33105;47.964;7.982;2022-12-22T15:45:27;24.25;;;3.40;;
47365;SDS011;33105;47.964;7.982;2022-12-22T15:48:30;17.23;;;3.38;;
47365;SDS011;33105;47.964;7.982;2022-12-22T15:51:33;17.85;;;2.90;;
47365;SDS011;33105;47.964;7.982;2022-12-22T15:54:35;26.67;;;3.63;;
47365;SDS011;33105;47.964;7.982;2022-12-22T15:57:36;15.90;;;2.60;;
47365;SDS011;33105;47.964;7.982;2022-12-22T16:00:38;18.20;;;3.05;;
47365;SDS011;33105;47.964;7.982;2022-12-22T16:03:39;24.50;;;2.97;;
47365;SDS011;33105;47.964;7.982;2022-12-22T16:06:40;21.92;;;3.15;;
47365;SDS011;33105;47.964;7.982;2022-12-22T16:09:43;22.52;;;3.17;;
47365;SDS011;33105;47.964;7.982;2022-12-22T16:12:46;14.10;;;3.10;;
47365;SDS011;33105;47.964;7.982;2022-12-22T16:15:55;19.05;;;3.17;;
47365;SDS011;33105;47.964;7.982;2022-12-22T16:18:57;16.58;;;3.05;;
47365;SDS011;33105;47.964;7.982;2022-12-22T16:21:59;21.17;;;3.10;;
47365;SDS011;33105;47.964;7.982;2022-12-22T16:25:03;15.25;;;3.13;;
47365;SDS011;33105;47.964;7.982;2022-12-22T16:28:09;25.90;;;3.92;;
47365;SDS011;33105;47.964;7.982;2022-12-22T16:31:17;19.90;;;3.55;;
47365;SDS011;33105;47.964;7.982;2022-12-22T16:34:20;13.75;;;2.85;;
47365;SDS011;33105;47.964;7.982;2022-12-22T16:37:22;22.33;;;3.67;;
47365;SDS011;33105;47.964;7.982;2022-12-22T16:40:24;18.48;;;3.67;;
47365;SDS011;33105;47.964;7.982;2022-12-22T16:43:32;19.58;;;3.35;;
47365;SDS011;33105;47.964;7.982;2022-12-22T16:46:36;27.42;;;3.65;;
47365;SDS011;33105;47.964;7.982;2022-12-22T16:49:40;22.30;;;3.75;;
47365;SDS011;33105;47.964;7.982;2022-12-22T16:52:45;22.65;;;4.28;;
47365;SDS011;33105;47.964;7.982;2022-12-22T16:55:53;18.70;;;4.28;;
47365;SDS011;33105;47.964;7.982;2022-12-22T16:58:59;21.50;;;3.83;;
47365;SDS011;33105;47.964;7.982;2022-12-22T17:02:03;15.25;;;2.30;;
47365;SDS011;33105;47.964;7.982;2022-12-22T17:05:04;17.23;;;3.08;;
47365;SDS011;33105;47.964;7.982;2022-12-22T17:11:23;21.20;;;3.25;;
47365;SDS011;33105;47.964;7.982;2022-12-22T17:14:28;15.38;;;3.30;;
47365;SDS011;33105;47.964;7.982;2022-12-22T17:17:39;16.33;;;2.67;;
47365;SDS011;33105;47.964;7.982;2022-12-22T17:20:41;8.55;;;2.10;;
47365;SDS011;33105;47.964;7.982;2022-12-22T17:23:48;12.27;;;2.38;;
47365;SDS011;33105;47.964;7.982;2022-12-22T17:26:53;14.70;;;2.03;;
47365;SDS011;33105;47.964;7.982;2022-12-22T17:29:55;8.60;;;1.63;;
47365;SDS011;33105;47.964;7.982;2022-12-22T17:32:59;20.95;;;3.33;;
47365;SDS011;33105;47.964;7.982;2022-12-22T17:36:00;16.48;;;2.90;;
47365;SDS011;33105;47.964;7.982;2022-12-22T17:39:02;14.32;;;2.53;;
47365;SDS011;33105;47.964;7.982;2022-12-22T17:42:17;13.88;;;2.35;;
47365;SDS011;33105;47.964;7.982;2022-12-22T17:45:20;12.05;;;2.70;;
47365;SDS011;33105;47.964;7.982;2022-12-22T17:48:22;16.75;;;2.90;;
47365;SDS011;33105;47.964;7.982;2022-12-22T17:51:24;17.58;;;3.33;;
47365;SDS011;33105;47.964;7.982;2022-12-22T17:54:28;11.77;;;2.63;;
47365;SDS011;33105;47.964;7.982;2022-12-22T17:57:30;20.08;;;3.08;;
47365;SDS011;33105;47.964;7.982;2022-12-22T18:00:37;19.65;;;3.05;;
47365;SDS011;33105;47.964;7.982;2022-12-22T18:03:44;17.10;;;3.17;;
47365;SDS011;33105;47.964;7.982;2022-12-22T18:06:45;22.50;;;3.55;;
47365;SDS011;33105;47.964;7.982;2022-12-22T18:09:46;23.35;;;3.17;;
47365;SDS011;33105;47.964;7.982;2022-12-22T18:12:59;28.55;;;4.20;;
47365;SDS011;33105;47.964;7.982;2022-12-22T18:16:01;20.88;;;3.38;;
47365;SDS011;33105;47.964;7.982;2022-12-22T18:19:03;25.15;;;4.43;;
47365;SDS011;33105;47.964;7.982;2022-12-22T18:22:07;24.52;;;3.75;;
47365;SDS011;33105;47.964;7.982;2022-12-22T18:25:19;22.58;;;3.35;;
47365;SDS011;33105;47.964;7.982;2022-12-22T18:28:22;26.83;;;4.18;;
47365;SDS011;33105;47.964;7.982;2022-12-22T18:31:24;20.02;;;3.38;;
47365;SDS011;33105;47.964;7.982;2022-12-22T18:34:27;19.50;;;3.00;;
47365;SDS011;33105;47.964;7.982;2022-12-22T18:37:28;23.02;;;3.83;;
47365;SDS011;33105;47.964;7.982;2022-12-22T18:40:34;17.55;;;3.00;;
47365;SDS011;33105;47.964;7.982;2022-12-22T18:43:37;21.20;;;3.10;;
47365;SDS011;33105;47.964;7.982;2022-12-22T18:46:38;20.08;;;3.35;;
47365;SDS011;33105;47.964;7.982;2022-12-22T18:49:41;28.35;;;4.15;;
47365;SDS011;33105;47.964;7.982;2022-12-22T18:52:44;23.58;;;3.50;;
47365;SDS011;33105;47.964;7.982;2022-12-22T18:55:47;14.77;;;3.03;;
47365;SDS011;33105;47.964;7.982;2022-12-22T18:58:49;16.85;;;2.70;;
47365;SDS011;33105;47.964;7.982;2022-12-22T19:01:50;18.50;;;2.83;;
47365;SDS011;33105;47.964;7.982;2022-12-22T19:04:52;15.23;;;2.60;;
47365;SDS011;33105;47.964;7.982;2022-12-22T19:07:54;18.67;;;2.85;;
47365;SDS011;33105;47.964;7.982;2022-12-22T19:10:57;17.02;;;2.97;;
47365;SDS011;33105;47.964;7.982;2022-12-22T19:14:01;19.70;;;3.08;;
47365;SDS011;33105;47.964;7.982;2022-12-22T19:17:04;22.95;;;3.78;;
47365;SDS011;33105;47.964;7.982;2022-12-22T19:20:13;16.73;;;2.67;;
47365;SDS011;33105;47.964;7.982;2022-12-22T19:23:18;17.20;;;3.00;;
47365;SDS011;33105;47.964;7.982;2022-12-22T19:26:24;18.88;;;3.20;;
47365;SDS011;33105;47.964;7.982;2022-12-22T19:29:27;16.67;;;3.00;;
47365;SDS011;33105;47.964;7.982;2022-12-22T19:32:30;10.52;;;2.28;;
47365;SDS011;33105;47.964;7.982;2022-12-22T19:35:38;11.85;;;2.67;;
47365;SDS011;33105;47.964;7.982;2022-12-22T19:38:40;13.75;;;2.45;;
47365;SDS011;33105;47.964;7.982;2022-12-22T19:41:51;8.43;;;1.77;;
47365;SDS011;33105;47.964;7.982;2022-12-22T19:44:55;9.77;;;1.85;;
47365;SDS011;33105;47.964;7.982;2022-12-22T19:47:56;11.48;;;2.00;;
47365;SDS011;33105;47.964;7.982;2022-12-22T19:50:57;8.70;;;1.90;;
47365;SDS011;33105;47.964;7.982;2022-12-22T19:54:00;12.65;;;2.35;;
47365;SDS011;33105;47.964;7.982;2022-12-22T19:57:01;8.88;;;1.73;;
47365;SDS011;33105;47.964;7.982;2022-12-22T20:00:04;7.70;;;1.50;;
47365;SDS011;33105;47.964;7.982;2022-12-22T20:03:15;9.30;;;1.77;;
47365;SDS011;33105;47.964;7.982;2022-12-22T20:06:20;7.40;;;1.65;;
47365;SDS011;33105;47.964;7.982;2022-12-22T20:09:24;4.82;;;1.42;;
47365;SDS011;33105;47.964;7.982;2022-12-22T20:12:29;5.05;;;1.20;;
47365;SDS011;33105;47.964;7.982;2022-12-22T20:15:34;8.18;;;2.50;;
47365;SDS011;33105;47.964;7.982;2022-12-22T20:18:37;6.80;;;1.60;;
47365;SDS011;33105;47.964;7.982;2022-12-22T20:21:38;7.30;;;1.33;;
47365;SDS011;33105;47.964;7.982;2022-12-22T20:24:41;8.73;;;1.52;;
47365;SDS011;33105;47.964;7.982;2022-12-22T20:27:44;7.28;;;2.67;;
47365;SDS011;33105;47.964;7.982;2022-12-22T20:30:46;7.47;;;1.50;;
47365;SDS011;33105;47.964;7.982;2022-12-22T20:33:48;8.40;;;1.83;;
47365;SDS011;33105;47.964;7.982;2022-12-22T20:36:50;4.47;;;1.98;;
47365;SDS011;33105;47.964;7.982;2022-12-22T20:39:51;8.63;;;2.92;;
47365;SDS011;33105;47.964;7.982;2022-12-22T20:42:54;9.13;;;1.90;;
47365;SDS011;33105;47.964;7.982;2022-12-22T20:45:59;6.38;;;1.38;;
47365;SDS011;33105;47.964;7.982;2022-12-22T20:49:03;3.35;;;0.60;;
47365;SDS011;33105;47.964;7.982;2022-12-22T20:52:04;3.72;;;0.77;;
47365;SDS011;33105;47.964;7.982;2022-12-22T20:55:08;7.68;;;1.27;;
47365;SDS011;33105;47.964;7.982;2022-12-22T20:58:15;3.03;;;1.00;;
47365;SDS011;33105;47.964;7.982;2022-12-22T21:01:19;8.35;;;2.40;;